sensor_id;sensor_type;location;lat;lon;timestamp;temperature;humidity
74923;HTU21D;64715;44.760;37.678;2023-03-16T00:00:56;11.76;72.62
74923;HTU21D;64715;44.760;37.678;2023-03-16T00:01:57;11.76;72.68
74923;HTU21D;64715;44.760;37.678;2023-03-16T00:02:58;11.74;72.60
74923;HTU21D;64715;44.760;37.678;2023-03-16T00:04:00;11.74;72.56
74923;HTU21D;64715;44.760;37.678;2023-03-16T00:05:01;11.74;72.77
74923;HTU21D;64715;44.760;37.678;2023-03-16T00:06:03;11.73;72.79
74923;HTU21D;64715;44.760;37.678;2023-03-16T00:07:05;11.70;72.67
74923;HTU21D;64715;44.760;37.678;2023-03-16T00:08:07;11.68;72.65
74923;HTU21D;64715;44.760;37.678;2023-03-16T00:09:08;11.68;72.79
74923;HTU21D;64715;44.760;37.678;2023-03-16T00:10:13;11.63;72.60
74923;HTU21D;64715;44.760;37.678;2023-03-16T00:11:14;11.63;72.65
74923;HTU21D;64715;44.760;37.678;2023-03-16T00:12:16;11.61;72.97
74923;HTU21D;64715;44.760;37.678;2023-03-16T00:13:19;11.60;72.92
74923;HTU21D;64715;44.760;37.678;2023-03-16T00:14:24;11.60;72.84
74923;HTU21D;64715;44.760;37.678;2023-03-16T00:15:25;11.58;72.84
74923;HTU21D;64715;44.760;37.678;2023-03-16T00:16:26;11.56;72.99
74923;HTU21D;64715;44.760;37.678;2023-03-16T00:17:27;11.56;73.08
74923;HTU21D;64715;44.760;37.678;2023-03-16T00:18:29;11.55;73.04
74923;HTU21D;64715;44.760;37.678;2023-03-16T00:19:30;11.55;73.06
74923;HTU21D;64715;44.760;37.678;2023-03-16T00:20:34;11.53;73.33
74923;HTU21D;64715;44.760;37.678;2023-03-16T00:21:35;11.53;73.06
74923;HTU21D;64715;44.760;37.678;2023-03-16T00:22:37;11.51;73.19
74923;HTU21D;64715;44.760;37.678;2023-03-16T00:23:38;11.49;73.24
74923;HTU21D;64715;44.760;37.678;2023-03-16T00:24:39;11.46;73.28
74923;HTU21D;64715;44.760;37.678;2023-03-16T00:25:43;11.47;73.51
74923;HTU21D;64715;44.760;37.678;2023-03-16T00:26:45;11.46;73.48
74923;HTU21D;64715;44.760;37.678;2023-03-16T00:27:46;11.44;73.43
74923;HTU21D;64715;44.760;37.678;2023-03-16T00:28:47;11.44;73.51
74923;HTU21D;64715;44.760;37.678;2023-03-16T00:29:49;11.43;73.60
74923;HTU21D;64715;44.760;37.678;2023-03-16T00:30:55;11.41;73.51
74923;HTU21D;64715;44.760;37.678;2023-03-16T00:31:59;11.40;73.57
74923;HTU21D;64715;44.760;37.678;2023-03-16T00:32:59;11.39;73.59
74923;HTU21D;64715;44.760;37.678;2023-03-16T00:34:01;11.37;73.70
74923;HTU21D;64715;44.760;37.678;2023-03-16T00:35:04;11.37;73.53
74923;HTU21D;64715;44.760;37.678;2023-03-16T00:36:06;11.37;73.70
74923;HTU21D;64715;44.760;37.678;2023-03-16T00:37:09;11.36;73.70
74923;HTU21D;64715;44.760;37.678;2023-03-16T00:38:10;11.37;73.58
74923;HTU21D;64715;44.760;37.678;2023-03-16T00:39:11;11.36;73.64
74923;HTU21D;64715;44.760;37.678;2023-03-16T00:40:14;11.37;73.80
74923;HTU21D;64715;44.760;37.678;2023-03-16T00:41:16;11.37;73.54
74923;HTU21D;64715;44.760;37.678;2023-03-16T00:42:18;11.37;73.80
74923;HTU21D;64715;44.760;37.678;2023-03-16T00:43:19;11.37;73.68
74923;HTU21D;64715;44.760;37.678;2023-03-16T00:44:21;11.37;73.70
74923;HTU21D;64715;44.760;37.678;2023-03-16T00:45:22;11.39;73.62
74923;HTU21D;64715;44.760;37.678;2023-03-16T00:46:23;11.38;73.82
74923;HTU21D;64715;44.760;37.678;2023-03-16T00:47:32;11.38;73.61
74923;HTU21D;64715;44.760;37.678;2023-03-16T00:48:38;11.38;73.83
74923;HTU21D;64715;44.760;37.678;2023-03-16T00:49:40;11.37;73.88
74923;HTU21D;64715;44.760;37.678;2023-03-16T00:50:42;11.37;73.91
74923;HTU21D;64715;44.760;37.678;2023-03-16T00:51:43;11.34;74.02
74923;HTU21D;64715;44.760;37.678;2023-03-16T00:52:46;11.36;73.61
74923;HTU21D;64715;44.760;37.678;2023-03-16T00:53:48;11.36;73.73
74923;HTU21D;64715;44.760;37.678;2023-03-16T00:54:49;11.36;73.92
74923;HTU21D;64715;44.760;37.678;2023-03-16T00:55:52;11.37;73.73
74923;HTU21D;64715;44.760;37.678;2023-03-16T00:56:53;11.36;73.47
74923;HTU21D;64715;44.760;37.678;2023-03-16T00:57:54;11.36;73.90
74923;HTU21D;64715;44.760;37.678;2023-03-16T00:58:55;11.34;73.92
74923;HTU21D;64715;44.760;37.678;2023-03-16T00:59:57;11.34;73.79
74923;HTU21D;64715;44.760;37.678;2023-03-16T01:00:59;11.36;73.83
74923;HTU21D;64715;44.760;37.678;2023-03-16T01:02:02;11.36;73.92
74923;HTU21D;64715;44.760;37.678;2023-03-16T01:03:04;11.36;73.71
74923;HTU21D;64715;44.760;37.678;2023-03-16T01:04:05;11.33;73.80
74923;HTU21D;64715;44.760;37.678;2023-03-16T01:05:08;11.37;73.95
74923;HTU21D;64715;44.760;37.678;2023-03-16T01:06:16;11.31;73.86
74923;HTU21D;64715;44.760;37.678;2023-03-16T01:07:17;11.33;73.66
74923;HTU21D;64715;44.760;37.678;2023-03-16T01:08:18;11.33;73.96
74923;HTU21D;64715;44.760;37.678;2023-03-16T01:09:20;11.32;74.06
74923;HTU21D;64715;44.760;37.678;2023-03-16T01:10:21;11.31;73.85
74923;HTU21D;64715;44.760;37.678;2023-03-16T01:11:22;11.30;73.82
74923;HTU21D;64715;44.760;37.678;2023-03-16T01:12:23;11.27;73.99
74923;HTU21D;64715;44.760;37.678;2023-03-16T01:13:24;11.27;74.09
74923;HTU21D;64715;44.760;37.678;2023-03-16T01:14:25;11.26;74.07
74923;HTU21D;64715;44.760;37.678;2023-03-16T01:15:26;11.28;73.96
74923;HTU21D;64715;44.760;37.678;2023-03-16T01:16:28;11.26;74.10
74923;HTU21D;64715;44.760;37.678;2023-03-16T01:17:29;11.23;73.95
74923;HTU21D;64715;44.760;37.678;2023-03-16T01:18:35;11.23;74.03
74923;HTU21D;64715;44.760;37.678;2023-03-16T01:19:36;11.22;74.18
74923;HTU21D;64715;44.760;37.678;2023-03-16T01:20:38;11.20;74.27
74923;HTU21D;64715;44.760;37.678;2023-03-16T01:21:40;11.19;74.20
74923;HTU21D;64715;44.760;37.678;2023-03-16T01:22:43;11.17;74.13
74923;HTU21D;64715;44.760;37.678;2023-03-16T01:23:44;11.15;74.05
74923;HTU21D;64715;44.760;37.678;2023-03-16T01:24:46;11.14;74.19
74923;HTU21D;64715;44.760;37.678;2023-03-16T01:25:47;11.13;74.35
74923;HTU21D;64715;44.760;37.678;2023-03-16T01:26:52;11.11;74.22
74923;HTU21D;64715;44.760;37.678;2023-03-16T01:27:54;11.09;74.52
74923;HTU21D;64715;44.760;37.678;2023-03-16T01:28:56;11.08;74.44
74923;HTU21D;64715;44.760;37.678;2023-03-16T01:29:57;11.08;74.32
74923;HTU21D;64715;44.760;37.678;2023-03-16T01:31:04;11.07;74.73
74923;HTU21D;64715;44.760;37.678;2023-03-16T01:32:07;11.04;74.68
74923;HTU21D;64715;44.760;37.678;2023-03-16T01:33:08;11.01;74.57
74923;HTU21D;64715;44.760;37.678;2023-03-16T01:34:09;11.02;74.74
74923;HTU21D;64715;44.760;37.678;2023-03-16T01:35:16;11.00;74.60
74923;HTU21D;64715;44.760;37.678;2023-03-16T01:36:18;10.98;74.70
74923;HTU21D;64715;44.760;37.678;2023-03-16T01:37:39;10.96;74.72
74923;HTU21D;64715;44.760;37.678;2023-03-16T01:38:49;10.96;74.57
74923;HTU21D;64715;44.760;37.678;2023-03-16T01:39:50;10.94;74.76
74923;HTU21D;64715;44.760;37.678;2023-03-16T01:40:53;10.93;74.67
74923;HTU21D;64715;44.760;37.678;2023-03-16T01:41:54;10.90;74.92
74923;HTU21D;64715;44.760;37.678;2023-03-16T01:43:03;10.89;74.89
74923;HTU21D;64715;44.760;37.678;2023-03-16T01:44:16;10.87;75.12
74923;HTU21D;64715;44.760;37.678;2023-03-16T01:46:56;10.83;74.68
74923;HTU21D;64715;44.760;37.678;2023-03-16T01:47:57;10.81;75.07
74923;HTU21D;64715;44.760;37.678;2023-03-16T01:50:10;10.78;75.23
74923;HTU21D;64715;44.760;37.678;2023-03-16T01:51:48;10.77;75.29
74923;HTU21D;64715;44.760;37.678;2023-03-16T01:52:44;10.74;75.38
74923;HTU21D;64715;44.760;37.678;2023-03-16T01:53:46;10.72;75.67
74923;HTU21D;64715;44.760;37.678;2023-03-16T01:54:55;10.70;75.64
74923;HTU21D;64715;44.760;37.678;2023-03-16T01:55:58;10.69;75.35
74923;HTU21D;64715;44.760;37.678;2023-03-16T01:57:09;10.69;75.66
74923;HTU21D;64715;44.760;37.678;2023-03-16T01:58:13;10.67;75.76
74923;HTU21D;64715;44.760;37.678;2023-03-16T01:59:15;10.67;75.76
74923;HTU21D;64715;44.760;37.678;2023-03-16T02:00:20;10.67;75.63
74923;HTU21D;64715;44.760;37.678;2023-03-16T02:01:46;10.64;75.86
74923;HTU21D;64715;44.760;37.678;2023-03-16T02:02:54;10.63;75.70
74923;HTU21D;64715;44.760;37.678;2023-03-16T02:04:43;10.60;75.78
74923;HTU21D;64715;44.760;37.678;2023-03-16T02:06:15;10.58;75.83
74923;HTU21D;64715;44.760;37.678;2023-03-16T02:07:23;10.56;75.98
74923;HTU21D;64715;44.760;37.678;2023-03-16T02:08:26;10.55;75.71
74923;HTU21D;64715;44.760;37.678;2023-03-16T02:09:28;10.55;75.99
74923;HTU21D;64715;44.760;37.678;2023-03-16T02:10:29;10.52;76.02
74923;HTU21D;64715;44.760;37.678;2023-03-16T02:11:31;10.54;76.10
74923;HTU21D;64715;44.760;37.678;2023-03-16T02:12:44;10.52;76.08
74923;HTU21D;64715;44.760;37.678;2023-03-16T02:13:47;10.53;76.35
74923;HTU21D;64715;44.760;37.678;2023-03-16T02:14:50;10.52;76.26
74923;HTU21D;64715;44.760;37.678;2023-03-16T02:15:52;10.53;76.08
74923;HTU21D;64715;44.760;37.678;2023-03-16T02:16:54;10.51;76.43
74923;HTU21D;64715;44.760;37.678;2023-03-16T02:17:57;10.52;76.44
74923;HTU21D;64715;44.760;37.678;2023-03-16T02:18:59;10.52;76.33
74923;HTU21D;64715;44.760;37.678;2023-03-16T02:22:55;10.51;76.37
74923;HTU21D;64715;44.760;37.678;2023-03-16T02:23:56;10.49;76.64
74923;HTU21D;64715;44.760;37.678;2023-03-16T02:24:57;10.50;76.60
74923;HTU21D;64715;44.760;37.678;2023-03-16T02:27:47;10.50;76.60
74923;HTU21D;64715;44.760;37.678;2023-03-16T02:29:16;10.48;76.37
74923;HTU21D;64715;44.760;37.678;2023-03-16T02:30:20;10.49;76.37
74923;HTU21D;64715;44.760;37.678;2023-03-16T02:31:36;10.48;76.60
74923;HTU21D;64715;44.760;37.678;2023-03-16T02:32:39;10.49;76.70
74923;HTU21D;64715;44.760;37.678;2023-03-16T02:33:41;10.49;76.57
74923;HTU21D;64715;44.760;37.678;2023-03-16T02:34:42;10.50;77.03
74923;HTU21D;64715;44.760;37.678;2023-03-16T02:35:45;10.49;76.98
74923;HTU21D;64715;44.760;37.678;2023-03-16T02:36:47;10.51;76.93
74923;HTU21D;64715;44.760;37.678;2023-03-16T02:37:51;10.50;76.69
74923;HTU21D;64715;44.760;37.678;2023-03-16T02:38:53;10.51;76.98
74923;HTU21D;64715;44.760;37.678;2023-03-16T02:39:54;10.50;77.06
74923;HTU21D;64715;44.760;37.678;2023-03-16T02:41:00;10.52;76.91
74923;HTU21D;64715;44.760;37.678;2023-03-16T02:42:17;10.52;77.08
74923;HTU21D;64715;44.760;37.678;2023-03-16T02:43:21;10.52;77.01
74923;HTU21D;64715;44.760;37.678;2023-03-16T02:44:36;10.53;76.96
74923;HTU21D;64715;44.760;37.678;2023-03-16T02:45:52;10.52;77.10
74923;HTU21D;64715;44.760;37.678;2023-03-16T02:47:01;10.51;77.29
74923;HTU21D;64715;44.760;37.678;2023-03-16T02:48:08;10.52;76.91
74923;HTU21D;64715;44.760;37.678;2023-03-16T02:49:31;10.53;77.31
74923;HTU21D;64715;44.760;37.678;2023-03-16T02:50:34;10.53;77.12
74923;HTU21D;64715;44.760;37.678;2023-03-16T02:51:36;10.54;76.99
74923;HTU21D;64715;44.760;37.678;2023-03-16T02:52:38;10.52;77.19
74923;HTU21D;64715;44.760;37.678;2023-03-16T02:53:39;10.54;77.41
74923;HTU21D;64715;44.760;37.678;2023-03-16T02:54:46;10.53;77.21
74923;HTU21D;64715;44.760;37.678;2023-03-16T02:55:47;10.52;77.40
74923;HTU21D;64715;44.760;37.678;2023-03-16T02:56:49;10.54;77.42
74923;HTU21D;64715;44.760;37.678;2023-03-16T02:57:50;10.56;77.42
74923;HTU21D;64715;44.760;37.678;2023-03-16T02:58:58;10.55;77.45
74923;HTU21D;64715;44.760;37.678;2023-03-16T03:00:00;10.54;77.51
74923;HTU21D;64715;44.760;37.678;2023-03-16T03:01:02;10.55;77.44
74923;HTU21D;64715;44.760;37.678;2023-03-16T03:02:03;10.57;77.45
74923;HTU21D;64715;44.760;37.678;2023-03-16T03:03:05;10.59;77.71
74923;HTU21D;64715;44.760;37.678;2023-03-16T03:04:08;10.57;77.48
74923;HTU21D;64715;44.760;37.678;2023-03-16T03:05:09;10.59;77.51
74923;HTU21D;64715;44.760;37.678;2023-03-16T03:06:11;10.60;77.62
74923;HTU21D;64715;44.760;37.678;2023-03-16T03:07:13;10.62;77.51
74923;HTU21D;64715;44.760;37.678;2023-03-16T03:08:33;10.62;77.49
74923;HTU21D;64715;44.760;37.678;2023-03-16T03:09:34;10.62;77.57
74923;HTU21D;64715;44.760;37.678;2023-03-16T03:10:36;10.62;77.87
74923;HTU21D;64715;44.760;37.678;2023-03-16T03:11:37;10.63;77.61
74923;HTU21D;64715;44.760;37.678;2023-03-16T03:12:39;10.62;77.62
74923;HTU21D;64715;44.760;37.678;2023-03-16T03:13:42;10.63;77.63
74923;HTU21D;64715;44.760;37.678;2023-03-16T03:14:48;10.63;77.56
74923;HTU21D;64715;44.760;37.678;2023-03-16T03:15:52;10.64;77.55
74923;HTU21D;64715;44.760;37.678;2023-03-16T03:16:55;10.64;77.53
74923;HTU21D;64715;44.760;37.678;2023-03-16T03:17:57;10.62;77.62
74923;HTU21D;64715;44.760;37.678;2023-03-16T03:19:03;10.62;77.77
74923;HTU21D;64715;44.760;37.678;2023-03-16T03:20:11;10.60;77.57
74923;HTU21D;64715;44.760;37.678;2023-03-16T03:21:19;10.58;77.36
74923;HTU21D;64715;44.760;37.678;2023-03-16T03:22:20;10.59;77.57
74923;HTU21D;64715;44.760;37.678;2023-03-16T03:23:22;10.58;77.61
74923;HTU21D;64715;44.760;37.678;2023-03-16T03:24:23;10.57;77.53
74923;HTU21D;64715;44.760;37.678;2023-03-16T03:25:24;10.56;77.54
74923;HTU21D;64715;44.760;37.678;2023-03-16T03:26:27;10.54;77.69
74923;HTU21D;64715;44.760;37.678;2023-03-16T03:27:32;10.55;77.59
74923;HTU21D;64715;44.760;37.678;2023-03-16T03:28:34;10.53;77.69
74923;HTU21D;64715;44.760;37.678;2023-03-16T03:29:35;10.52;77.81
74923;HTU21D;64715;44.760;37.678;2023-03-16T03:30:36;10.51;77.57
74923;HTU21D;64715;44.760;37.678;2023-03-16T03:31:38;10.50;77.81
74923;HTU21D;64715;44.760;37.678;2023-03-16T03:32:39;10.49;77.62
74923;HTU21D;64715;44.760;37.678;2023-03-16T03:33:41;10.48;77.77
74923;HTU21D;64715;44.760;37.678;2023-03-16T03:34:42;10.48;77.66
74923;HTU21D;64715;44.760;37.678;2023-03-16T03:35:43;10.46;77.72
74923;HTU21D;64715;44.760;37.678;2023-03-16T03:36:44;10.44;77.81
74923;HTU21D;64715;44.760;37.678;2023-03-16T03:37:45;10.44;78.12
74923;HTU21D;64715;44.760;37.678;2023-03-16T03:38:47;10.42;77.90
74923;HTU21D;64715;44.760;37.678;2023-03-16T03:39:50;10.40;77.89
74923;HTU21D;64715;44.760;37.678;2023-03-16T03:40:53;10.40;77.99
74923;HTU21D;64715;44.760;37.678;2023-03-16T03:41:54;10.39;78.03
74923;HTU21D;64715;44.760;37.678;2023-03-16T03:42:56;10.38;77.97
74923;HTU21D;64715;44.760;37.678;2023-03-16T03:43:59;10.36;77.76
74923;HTU21D;64715;44.760;37.678;2023-03-16T03:45:00;10.36;78.14
74923;HTU21D;64715;44.760;37.678;2023-03-16T03:46:04;10.35;78.05
74923;HTU21D;64715;44.760;37.678;2023-03-16T03:47:07;10.35;78.13
74923;HTU21D;64715;44.760;37.678;2023-03-16T03:48:09;10.30;78.37
74923;HTU21D;64715;44.760;37.678;2023-03-16T03:49:10;10.30;78.26
74923;HTU21D;64715;44.760;37.678;2023-03-16T03:50:13;10.31;78.19
74923;HTU21D;64715;44.760;37.678;2023-03-16T03:51:25;10.28;78.36
74923;HTU21D;64715;44.760;37.678;2023-03-16T03:52:35;10.28;78.33
74923;HTU21D;64715;44.760;37.678;2023-03-16T03:53:36;10.27;78.34
74923;HTU21D;64715;44.760;37.678;2023-03-16T03:54:57;10.24;78.37
74923;HTU21D;64715;44.760;37.678;2023-03-16T03:55:59;10.24;78.66
74923;HTU21D;64715;44.760;37.678;2023-03-16T03:57:00;10.22;78.38
74923;HTU21D;64715;44.760;37.678;2023-03-16T03:58:01;10.22;78.91
74923;HTU21D;64715;44.760;37.678;2023-03-16T03:59:03;10.20;79.10
74923;HTU21D;64715;44.760;37.678;2023-03-16T04:00:37;10.18;78.88
74923;HTU21D;64715;44.760;37.678;2023-03-16T04:01:38;10.18;78.73
74923;HTU21D;64715;44.760;37.678;2023-03-16T04:02:39;10.18;79.01
74923;HTU21D;64715;44.760;37.678;2023-03-16T04:03:47;10.18;78.65
74923;HTU21D;64715;44.760;37.678;2023-03-16T04:04:49;10.15;78.98
74923;HTU21D;64715;44.760;37.678;2023-03-16T04:05:50;10.15;79.24
74923;HTU21D;64715;44.760;37.678;2023-03-16T04:06:51;10.15;79.67
74923;HTU21D;64715;44.760;37.678;2023-03-16T04:07:53;10.16;79.37
74923;HTU21D;64715;44.760;37.678;2023-03-16T04:08:57;10.15;79.39
74923;HTU21D;64715;44.760;37.678;2023-03-16T04:10:01;10.15;79.52
74923;HTU21D;64715;44.760;37.678;2023-03-16T04:11:08;10.14;79.60
74923;HTU21D;64715;44.760;37.678;2023-03-16T04:12:10;10.14;79.51
74923;HTU21D;64715;44.760;37.678;2023-03-16T04:13:12;10.15;79.48
74923;HTU21D;64715;44.760;37.678;2023-03-16T04:14:13;10.15;79.60
74923;HTU21D;64715;44.760;37.678;2023-03-16T04:15:14;10.15;79.65
74923;HTU21D;64715;44.760;37.678;2023-03-16T04:16:32;10.14;79.44
74923;HTU21D;64715;44.760;37.678;2023-03-16T04:17:33;10.13;79.30
74923;HTU21D;64715;44.760;37.678;2023-03-16T04:18:36;10.14;79.60
74923;HTU21D;64715;44.760;37.678;2023-03-16T04:19:42;10.13;79.75
74923;HTU21D;64715;44.760;37.678;2023-03-16T04:20:47;10.14;79.88
74923;HTU21D;64715;44.760;37.678;2023-03-16T04:21:52;10.13;79.89
74923;HTU21D;64715;44.760;37.678;2023-03-16T04:22:53;10.14;79.86
74923;HTU21D;64715;44.760;37.678;2023-03-16T04:23:58;10.15;79.91
74923;HTU21D;64715;44.760;37.678;2023-03-16T04:25:07;10.15;79.98
74923;HTU21D;64715;44.760;37.678;2023-03-16T04:26:10;10.16;79.93
74923;HTU21D;64715;44.760;37.678;2023-03-16T04:27:12;10.19;80.07
74923;HTU21D;64715;44.760;37.678;2023-03-16T04:28:14;10.16;80.14
74923;HTU21D;64715;44.760;37.678;2023-03-16T04:29:18;10.19;80.03
74923;HTU21D;64715;44.760;37.678;2023-03-16T04:30:20;10.20;80.06
74923;HTU21D;64715;44.760;37.678;2023-03-16T04:31:26;10.19;79.91
74923;HTU21D;64715;44.760;37.678;2023-03-16T04:32:27;10.21;79.87
74923;HTU21D;64715;44.760;37.678;2023-03-16T04:33:30;10.21;79.74
74923;HTU21D;64715;44.760;37.678;2023-03-16T04:34:32;10.24;80.07
74923;HTU21D;64715;44.760;37.678;2023-03-16T04:35:39;10.21;79.92
74923;HTU21D;64715;44.760;37.678;2023-03-16T04:36:41;10.22;79.98
74923;HTU21D;64715;44.760;37.678;2023-03-16T04:37:44;10.23;79.93
74923;HTU21D;64715;44.760;37.678;2023-03-16T04:38:45;10.23;80.04
74923;HTU21D;64715;44.760;37.678;2023-03-16T04:39:46;10.20;80.25
74923;HTU21D;64715;44.760;37.678;2023-03-16T04:40:48;10.23;80.14
74923;HTU21D;64715;44.760;37.678;2023-03-16T04:41:52;10.21;80.15
74923;HTU21D;64715;44.760;37.678;2023-03-16T04:42:56;10.24;80.14
74923;HTU21D;64715;44.760;37.678;2023-03-16T04:43:57;10.23;80.32
74923;HTU21D;64715;44.760;37.678;2023-03-16T04:44:59;10.23;80.20
74923;HTU21D;64715;44.760;37.678;2023-03-16T04:46:02;10.23;80.24
74923;HTU21D;64715;44.760;37.678;2023-03-16T04:47:05;10.22;80.56
74923;HTU21D;64715;44.760;37.678;2023-03-16T04:48:11;10.23;80.29
74923;HTU21D;64715;44.760;37.678;2023-03-16T04:49:13;10.24;80.51
74923;HTU21D;64715;44.760;37.678;2023-03-16T04:50:17;10.25;80.40
74923;HTU21D;64715;44.760;37.678;2023-03-16T04:51:24;10.27;80.43
74923;HTU21D;64715;44.760;37.678;2023-03-16T04:52:38;10.26;80.44
74923;HTU21D;64715;44.760;37.678;2023-03-16T04:53:40;10.28;80.45
74923;HTU21D;64715;44.760;37.678;2023-03-16T04:54:53;10.29;80.57
74923;HTU21D;64715;44.760;37.678;2023-03-16T04:55:54;10.30;80.10
74923;HTU21D;64715;44.760;37.678;2023-03-16T04:56:55;10.33;80.36
74923;HTU21D;64715;44.760;37.678;2023-03-16T04:58:05;10.33;80.49
74923;HTU21D;64715;44.760;37.678;2023-03-16T04:59:09;10.37;80.40
74923;HTU21D;64715;44.760;37.678;2023-03-16T05:00:23;10.38;80.26
74923;HTU21D;64715;44.760;37.678;2023-03-16T05:01:38;10.39;80.46
74923;HTU21D;64715;44.760;37.678;2023-03-16T05:02:39;10.41;80.40
74923;HTU21D;64715;44.760;37.678;2023-03-16T05:03:51;10.42;80.43
74923;HTU21D;64715;44.760;37.678;2023-03-16T05:05:13;10.45;80.42
74923;HTU21D;64715;44.760;37.678;2023-03-16T05:06:17;10.44;80.19
74923;HTU21D;64715;44.760;37.678;2023-03-16T05:07:19;10.48;80.40
74923;HTU21D;64715;44.760;37.678;2023-03-16T05:08:24;10.49;80.66
74923;HTU21D;64715;44.760;37.678;2023-03-16T05:09:38;10.50;80.29
74923;HTU21D;64715;44.760;37.678;2023-03-16T05:10:43;10.52;80.33
74923;HTU21D;64715;44.760;37.678;2023-03-16T05:11:46;10.52;80.34
74923;HTU21D;64715;44.760;37.678;2023-03-16T05:12:47;10.55;80.46
74923;HTU21D;64715;44.760;37.678;2023-03-16T05:13:49;10.56;80.51
74923;HTU21D;64715;44.760;37.678;2023-03-16T05:14:50;10.58;80.36
74923;HTU21D;64715;44.760;37.678;2023-03-16T05:16:27;10.62;80.25
74923;HTU21D;64715;44.760;37.678;2023-03-16T05:17:28;10.63;80.18
74923;HTU21D;64715;44.760;37.678;2023-03-16T05:18:30;10.66;80.33
74923;HTU21D;64715;44.760;37.678;2023-03-16T05:19:32;10.66;80.04
74923;HTU21D;64715;44.760;37.678;2023-03-16T05:20:35;10.70;80.12
74923;HTU21D;64715;44.760;37.678;2023-03-16T05:21:38;10.72;80.00
74923;HTU21D;64715;44.760;37.678;2023-03-16T05:22:44;10.73;79.88
74923;HTU21D;64715;44.760;37.678;2023-03-16T05:23:51;10.74;80.02
74923;HTU21D;64715;44.760;37.678;2023-03-16T05:24:52;10.77;80.04
74923;HTU21D;64715;44.760;37.678;2023-03-16T05:25:53;10.80;80.13
74923;HTU21D;64715;44.760;37.678;2023-03-16T05:26:57;10.81;80.00
74923;HTU21D;64715;44.760;37.678;2023-03-16T05:27:59;10.84;79.92
74923;HTU21D;64715;44.760;37.678;2023-03-16T05:29:08;10.87;79.82
74923;HTU21D;64715;44.760;37.678;2023-03-16T05:30:10;10.89;79.87
74923;HTU21D;64715;44.760;37.678;2023-03-16T05:31:12;10.90;79.71
74923;HTU21D;64715;44.760;37.678;2023-03-16T05:32:18;10.92;79.60
74923;HTU21D;64715;44.760;37.678;2023-03-16T05:33:19;10.95;79.57
74923;HTU21D;64715;44.760;37.678;2023-03-16T05:34:25;10.95;79.76
74923;HTU21D;64715;44.760;37.678;2023-03-16T05:35:26;10.97;79.57
74923;HTU21D;64715;44.760;37.678;2023-03-16T05:36:32;11.00;79.61
74923;HTU21D;64715;44.760;37.678;2023-03-16T05:37:40;11.02;79.13
74923;HTU21D;64715;44.760;37.678;2023-03-16T05:38:46;11.03;79.40
74923;HTU21D;64715;44.760;37.678;2023-03-16T05:39:56;11.04;79.32
74923;HTU21D;64715;44.760;37.678;2023-03-16T05:40:58;11.05;79.60
74923;HTU21D;64715;44.760;37.678;2023-03-16T05:42:33;11.08;79.22
74923;HTU21D;64715;44.760;37.678;2023-03-16T05:43:36;11.09;79.12
74923;HTU21D;64715;44.760;37.678;2023-03-16T05:44:40;11.11;79.30
74923;HTU21D;64715;44.760;37.678;2023-03-16T05:46:07;11.11;79.04
74923;HTU21D;64715;44.760;37.678;2023-03-16T05:47:08;11.12;79.01
74923;HTU21D;64715;44.760;37.678;2023-03-16T05:48:14;11.13;79.14
74923;HTU21D;64715;44.760;37.678;2023-03-16T05:49:19;11.13;78.96
74923;HTU21D;64715;44.760;37.678;2023-03-16T05:50:22;11.14;78.82
74923;HTU21D;64715;44.760;37.678;2023-03-16T05:51:23;11.16;79.02
74923;HTU21D;64715;44.760;37.678;2023-03-16T05:52:27;11.16;78.78
74923;HTU21D;64715;44.760;37.678;2023-03-16T05:53:32;11.19;78.71
74923;HTU21D;64715;44.760;37.678;2023-03-16T05:54:51;11.19;78.75
74923;HTU21D;64715;44.760;37.678;2023-03-16T05:55:52;11.20;78.84
74923;HTU21D;64715;44.760;37.678;2023-03-16T05:56:53;11.22;78.82
74923;HTU21D;64715;44.760;37.678;2023-03-16T05:57:55;11.22;78.78
74923;HTU21D;64715;44.760;37.678;2023-03-16T05:58:57;11.25;78.76
74923;HTU21D;64715;44.760;37.678;2023-03-16T06:00:00;11.26;78.61
74923;HTU21D;64715;44.760;37.678;2023-03-16T06:01:02;11.26;78.61
74923;HTU21D;64715;44.760;37.678;2023-03-16T06:02:05;11.30;78.43
74923;HTU21D;64715;44.760;37.678;2023-03-16T06:03:07;11.31;78.41
74923;HTU21D;64715;44.760;37.678;2023-03-16T06:04:11;11.33;78.59
74923;HTU21D;64715;44.760;37.678;2023-03-16T06:05:16;11.34;78.59
74923;HTU21D;64715;44.760;37.678;2023-03-16T06:06:20;11.38;78.68
74923;HTU21D;64715;44.760;37.678;2023-03-16T06:07:28;11.38;78.59
74923;HTU21D;64715;44.760;37.678;2023-03-16T06:08:29;11.41;78.37
74923;HTU21D;64715;44.760;37.678;2023-03-16T06:09:37;11.44;78.27
74923;HTU21D;64715;44.760;37.678;2023-03-16T06:10:47;11.47;78.35
74923;HTU21D;64715;44.760;37.678;2023-03-16T06:11:51;11.48;78.57
74923;HTU21D;64715;44.760;37.678;2023-03-16T06:12:52;11.53;78.31
74923;HTU21D;64715;44.760;37.678;2023-03-16T06:13:54;11.54;78.17
74923;HTU21D;64715;44.760;37.678;2023-03-16T06:14:57;11.55;78.06
74923;HTU21D;64715;44.760;37.678;2023-03-16T06:16:00;11.56;77.95
74923;HTU21D;64715;44.760;37.678;2023-03-16T06:17:01;11.59;77.80
74923;HTU21D;64715;44.760;37.678;2023-03-16T06:18:03;11.58;77.90
74923;HTU21D;64715;44.760;37.678;2023-03-16T06:19:04;11.61;77.70
74923;HTU21D;64715;44.760;37.678;2023-03-16T06:20:09;11.63;77.88
74923;HTU21D;64715;44.760;37.678;2023-03-16T06:21:12;11.64;77.83
74923;HTU21D;64715;44.760;37.678;2023-03-16T06:22:14;11.66;78.18
74923;HTU21D;64715;44.760;37.678;2023-03-16T06:23:16;11.67;77.85
74923;HTU21D;64715;44.760;37.678;2023-03-16T06:24:19;11.68;78.05
74923;HTU21D;64715;44.760;37.678;2023-03-16T06:25:21;11.70;78.24
74923;HTU21D;64715;44.760;37.678;2023-03-16T06:26:22;11.73;78.24
74923;HTU21D;64715;44.760;37.678;2023-03-16T06:27:23;11.73;78.21
74923;HTU21D;64715;44.760;37.678;2023-03-16T06:28:41;11.75;78.38
74923;HTU21D;64715;44.760;37.678;2023-03-16T06:29:44;11.75;78.34
74923;HTU21D;64715;44.760;37.678;2023-03-16T06:30:45;11.78;78.47
74923;HTU21D;64715;44.760;37.678;2023-03-16T06:31:46;11.76;78.34
74923;HTU21D;64715;44.760;37.678;2023-03-16T06:32:47;11.77;78.45
74923;HTU21D;64715;44.760;37.678;2023-03-16T06:33:48;11.77;78.13
74923;HTU21D;64715;44.760;37.678;2023-03-16T06:34:52;11.76;78.13
74923;HTU21D;64715;44.760;37.678;2023-03-16T06:35:53;11.77;78.30
74923;HTU21D;64715;44.760;37.678;2023-03-16T06:37:16;11.76;78.10
74923;HTU21D;64715;44.760;37.678;2023-03-16T06:38:18;11.74;78.40
74923;HTU21D;64715;44.760;37.678;2023-03-16T06:39:35;11.74;78.30
74923;HTU21D;64715;44.760;37.678;2023-03-16T06:40:37;11.74;78.53
74923;HTU21D;64715;44.760;37.678;2023-03-16T06:41:41;11.73;78.50
74923;HTU21D;64715;44.760;37.678;2023-03-16T06:42:43;11.74;78.61